createdAt,value
2017-05-23T00:00:02.401Z,13.3
2017-05-23T00:10:03.010Z,13.22
2017-05-23T00:20:02.226Z,13.22
2017-05-23T00:30:02.683Z,13.19
2017-05-23T00:40:02.182Z,13.21
2017-05-23T00:50:02.639Z,13.18
2017-05-23T01:00:03.130Z,13.09
2017-05-23T01:10:02.206Z,12.99
2017-05-23T01:20:02.922Z,12.85
2017-05-23T01:30:02.398Z,12.81
2017-05-23T01:40:02.181Z,12.77
2017-05-23T01:50:02.336Z,12.7
2017-05-23T02:00:02.816Z,12.59
2017-05-23T02:10:02.770Z,12.51
2017-05-23T02:20:03.121Z,12.45
2017-05-23T02:30:02.593Z,12.33
2017-05-23T02:40:02.982Z,12.26
2017-05-23T02:50:02.993Z,12.26
2017-05-23T03:00:02.500Z,12.29
2017-05-23T03:10:02.689Z,12.34
2017-05-23T03:20:02.980Z,12.32
2017-05-23T03:30:02.427Z,12.33
2017-05-23T03:40:02.917Z,12.37
2017-05-23T03:50:02.518Z,12.45
2017-05-23T04:00:03.001Z,12.55
2017-05-23T04:10:03.081Z,12.66
2017-05-23T04:20:03.130Z,12.78
2017-05-23T04:30:03.814Z,12.89
2017-05-23T04:40:02.806Z,13.02
2017-05-23T04:50:02.790Z,13.18
2017-05-23T05:00:02.918Z,13.29
2017-05-23T05:10:02.998Z,13.37
2017-05-23T05:20:02.545Z,13.47
2017-05-23T05:30:02.604Z,13.63
2017-05-23T05:40:02.734Z,13.88
2017-05-23T05:50:02.914Z,14.05
2017-05-23T06:00:03.026Z,14.24
2017-05-23T06:10:03.119Z,14.45
2017-05-23T06:20:02.203Z,14.59
2017-05-23T06:30:02.293Z,14.75
2017-05-23T06:40:02.425Z,14.98
2017-05-23T06:50:02.383Z,15.28
2017-05-23T07:00:02.518Z,15.89
2017-05-23T07:10:02.600Z,17.67
2017-05-23T07:20:02.209Z,19.26
2017-05-23T07:30:02.328Z,20.36
2017-05-23T07:40:02.428Z,21.3
2017-05-23T07:50:02.907Z,22.11
2017-05-23T08:00:03.023Z,23.11
2017-05-23T08:10:03.102Z,23.25
2017-05-23T08:20:02.290Z,23.86
2017-05-23T08:30:02.366Z,24.21
2017-05-23T08:40:02.473Z,23.5
2017-05-23T08:50:02.832Z,23.83
2017-05-23T09:00:02.942Z,24.68
2017-05-23T09:10:03.011Z,25.44
2017-05-23T09:20:02.420Z,26.24
2017-05-23T09:30:02.488Z,26.16
2017-05-23T09:40:02.608Z,25.3
2017-05-23T09:50:03.095Z,25.09
2017-05-23T10:00:02.218Z,25.68
2017-05-23T10:10:02.302Z,25.03
2017-05-23T10:20:02.718Z,24.51
2017-05-23T10:30:02.804Z,24.51
2017-05-23T10:40:02.906Z,24.63
2017-05-23T10:50:03.020Z,24.23
2017-05-23T11:00:03.117Z,24.13
2017-05-23T11:10:02.224Z,24.7
2017-05-23T11:20:02.375Z,24.88
2017-05-23T11:30:02.450Z,25.53
2017-05-23T11:40:02.548Z,25.86
2017-05-23T11:50:02.699Z,25.44
2017-05-23T12:00:02.821Z,25.01
2017-05-23T12:10:02.886Z,24.32
2017-05-23T12:20:02.354Z,23.67
2017-05-23T12:30:02.444Z,24.17
2017-05-23T12:40:02.575Z,24.34
2017-05-23T12:50:02.774Z,23.89
2017-05-23T13:00:02.883Z,23.79
2017-05-23T13:10:02.957Z,23.95
2017-05-23T13:20:02.150Z,24.15
2017-05-23T13:30:02.251Z,24.25
2017-05-23T13:40:02.344Z,24.16
2017-05-23T13:50:02.191Z,24.24
2017-05-23T14:00:02.276Z,23.98
2017-05-23T14:10:02.380Z,23.91
2017-05-23T14:20:02.730Z,23.75
2017-05-23T14:30:02.814Z,23.65
2017-05-23T14:40:02.902Z,23.71
2017-05-23T14:50:03.104Z,23.81
2017-05-23T15:00:02.219Z,23.65
2017-05-23T15:10:02.310Z,23.42
2017-05-23T15:20:02.627Z,23.42
2017-05-23T15:30:02.688Z,23.53
2017-05-23T15:40:02.805Z,23.57
2017-05-23T15:50:02.619Z,23.46
2017-05-23T16:00:02.720Z,23.49
2017-05-23T16:10:02.793Z,23.14
2017-05-23T16:20:02.623Z,22.72
2017-05-23T16:30:02.658Z,22.29
2017-05-23T16:40:02.781Z,21.83
2017-05-23T16:50:02.231Z,21.3
2017-05-23T17:00:02.338Z,20.87
2017-05-23T17:10:02.420Z,20.56
2017-05-23T17:20:03.066Z,20.27
2017-05-23T17:30:02.159Z,20.06
2017-05-23T17:40:02.282Z,19.74
2017-05-23T17:50:03.061Z,19.38
2017-05-23T18:00:02.164Z,18.99
2017-05-23T18:10:02.759Z,18.39
2017-05-23T18:20:02.807Z,18.02
2017-05-23T18:30:02.251Z,17.83
2017-05-23T18:40:02.723Z,17.51
2017-05-23T18:50:02.287Z,17.24
2017-05-23T19:00:02.739Z,17.04
2017-05-23T19:10:02.877Z,16.72
2017-05-23T19:20:02.459Z,16.44
2017-05-23T19:30:02.903Z,16.16
2017-05-23T19:40:02.427Z,15.83
2017-05-23T19:50:02.849Z,15.59
2017-05-23T20:00:02.587Z,15.44
2017-05-23T20:10:03.070Z,15.14
2017-05-23T20:20:02.189Z,14.91
2017-05-23T20:30:02.629Z,14.65
2017-05-23T20:40:02.232Z,14.27
2017-05-23T20:50:03.034Z,13.96
2017-05-23T21:00:02.505Z,13.74
2017-05-23T21:10:02.954Z,13.62
2017-05-23T21:20:02.426Z,13.51
2017-05-23T21:30:02.895Z,13.46
2017-05-23T21:40:02.957Z,13.33
2017-05-23T21:50:02.685Z,13.18
2017-05-23T22:00:02.187Z,13.04
2017-05-23T22:10:02.177Z,12.95
2017-05-23T22:20:02.574Z,12.85
2017-05-23T22:30:03.016Z,12.75
2017-05-23T22:40:02.273Z,12.66
2017-05-23T22:50:02.549Z,12.61
2017-05-23T23:00:02.968Z,12.52
2017-05-23T23:10:02.366Z,12.4
2017-05-23T23:20:02.954Z,12.27
2017-05-23T23:30:02.439Z,12.19
2017-05-23T23:40:02.915Z,12.07
2017-05-23T23:50:02.770Z,11.97
